Time;durP1;ratioP1;P1;durP2;ratioP2;P2;SDS_P1;SDS_P2;PMS_P1;PMS_P2;Temp;Humidity;BMP_temperature;BMP_pressure;BME280_temperature;BME280_humidity;BME280_pressure;Samples;Min_cycle;Max_cycle;Signal;HPM_P1;HPM_P2
2022/08/04 00:00:04;;;;;;;4.60;4.00;;;;;;;15.81;69.68;97509.42;110143;1247;69459;-71
2022/08/04 00:03:15;;;;;;;7.00;4.90;;;;;;;15.77;73.55;97510.67;110052;1247;59757;-71
2022/08/04 00:05:53;;;;;;;5.30;4.80;;;;;;;15.68;75.26;97508.17;110244;1247;59744;-71
2022/08/04 00:08:24;;;;;;;7.10;4.80;;;;;;;15.54;76.41;97506.60;110250;1247;71437;-72
2022/08/04 00:10:55;;;;;;;5.20;4.70;;;;;;;15.44;75.54;97514.20;110123;1247;68254;-70
2022/08/04 00:13:30;;;;;;;5.10;4.60;;;;;;;15.33;75.12;97511.00;110035;1247;69608;-71
2022/08/04 00:16:06;;;;;;;5.80;4.20;;;;;;;15.25;76.52;97510.46;110158;1245;59741;-71
2022/08/04 00:18:49;;;;;;;4.70;4.30;;;;;;;15.21;77.16;97510.66;110177;1247;59684;-70
2022/08/04 00:21:23;;;;;;;6.90;5.10;;;;;;;15.17;77.30;97511.16;110072;1247;71744;-71
2022/08/04 00:23:55;;;;;;;4.90;4.00;;;;;;;15.13;76.92;97507.65;110161;1246;69439;-71
2022/08/04 00:26:41;;;;;;;4.00;3.60;;;;;;;15.10;74.45;97512.00;110091;1245;68611;-70
2022/08/04 00:29:11;;;;;;;5.90;4.40;;;;;;;15.08;72.97;97512.73;110044;1247;59690;-72
2022/08/04 00:31:42;;;;;;;4.30;3.70;;;;;;;15.07;76.05;97519.98;110167;1246;59694;-70
2022/08/04 00:34:28;;;;;;;6.40;4.60;;;;;;;15.06;77.10;97525.86;110150;1247;71511;-71
2022/08/04 00:36:58;;;;;;;5.00;4.50;;;;;;;15.05;78.92;97524.52;110161;1247;68613;-70
2022/08/04 00:39:28;;;;;;;;;;;;;;;15.03;76.47;97522.61;110123;1247;69469;-72
2022/08/04 00:42:07;;;;;;;6.40;4.80;;;;;;;15.00;78.20;97525.17;110265;1247;59751;-71
2022/08/04 00:44:52;;;;;;;4.90;4.20;;;;;;;14.96;79.17;97530.10;110289;1247;59687;-71
2022/08/04 00:47:39;;;;;;;4.90;4.40;;;;;;;14.93;78.75;97529.34;110201;1247;71366;-71
2022/08/04 00:50:10;;;;;;;5.00;4.50;;;;;;;14.89;79.79;97529.65;110181;1246;69351;-72
2022/08/04 00:52:46;;;;;;;5.80;4.70;;;;;;;14.85;79.40;97531.06;110207;1245;69408;-71
2022/08/04 00:55:40;;;;;;;4.40;4.00;;;;;;;14.81;78.74;97527.89;110160;1247;60072;-70
2022/08/04 00:58:39;;;;;;;5.00;4.40;;;;;;;14.76;78.98;97529.02;110170;1247;59669;-70
2022/08/04 01:01:49;;;;;;;4.70;4.20;;;;;;;14.74;80.55;97533.27;110120;1246;71391;-72
2022/08/04 01:04:24;;;;;;;5.10;4.60;;;;;;;14.71;80.02;97533.19;109638;1247;68869;-70
2022/08/04 01:07:05;;;;;;;5.30;4.30;;;;;;;14.71;80.26;97539.84;110061;1247;68673;-71
2022/08/04 01:09:50;;;;;;;5.00;4.60;;;;;;;14.70;79.72;97537.11;110063;1247;59748;-69
2022/08/04 01:12:49;;;;;;;5.10;3.70;;;;;;;14.69;79.54;97534.23;110080;1248;59673;-70
2022/08/04 01:15:54;;;;;;;4.60;4.00;;;;;;;14.67;80.39;97535.45;110419;1244;71515;-70
2022/08/04 01:18:49;;;;;;;4.60;4.10;;;;;;;14.64;80.60;97537.42;109768;1244;618241;-71
2022/08/04 01:21:40;;;;;;;7.00;4.90;;;;;;;14.63;80.32;97539.50;110287;1247;68679;-70
2022/08/04 01:24:29;;;;;;;5.80;4.70;;;;;;;14.61;80.60;97540.88;110164;1247;59713;-69
2022/08/04 01:27:25;;;;;;;5.00;4.50;;;;;;;14.59;81.63;97540.03;110087;1247;59638;-69
2022/08/04 01:29:59;;;;;;;4.30;3.60;;;;;;;14.56;78.65;97542.91;110076;1247;70833;-70
2022/08/04 01:32:37;;;;;;;4.60;4.20;;;;;;;14.54;77.76;97543.64;110204;1245;69060;-70
2022/08/04 01:35:33;;;;;;;4.40;3.90;;;;;;;14.52;79.75;97548.13;110216;1247;69419;-70
2022/08/04 01:38:25;;;;;;;6.60;4.30;;;;;;;14.49;79.93;97544.73;110229;1247;59716;-70
2022/08/04 01:41:01;;;;;;;5.10;4.50;;;;;;;14.47;81.04;97544.84;110236;1245;59820;-70
2022/08/04 01:43:34;;;;;;;5.80;4.80;;;;;;;14.44;79.85;97544.63;110244;1245;70730;-71
2022/08/04 01:46:05;;;;;;;4.70;4.20;;;;;;;14.42;79.61;97545.16;110113;1247;69509;-72
2022/08/04 01:48:38;;;;;;;5.10;4.40;;;;;;;14.40;78.20;97538.83;110186;1247;69228;-71
2022/08/04 01:51:09;;;;;;;5.10;4.10;;;;;;;14.37;77.56;97541.05;110135;1247;59760;-72
2022/08/04 01:53:40;;;;;;;;;;;;;;;14.35;79.37;97538.56;110223;1247;59679;-71
2022/08/04 01:56:12;;;;;;;5.40;3.60;;;;;;;14.30;81.68;97543.05;110203;1247;71147;-72
2022/08/04 01:58:42;;;;;;;5.00;4.40;;;;;;;14.23;81.66;97540.30;110166;1247;68563;-70
2022/08/04 02:01:13;;;;;;;5.10;4.20;;;;;;;14.15;81.54;97535.14;110170;1246;69466;-70
2022/08/04 02:03:45;;;;;;;;;;;;;;;14.10;81.78;97539.30;110172;1247;59742;-70
2022/08/04 02:06:56;;;;;;;5.20;4.70;;;;;;;14.07;83.17;97540.05;110089;1246;59621;-71
2022/08/04 02:09:48;;;;;;;4.70;4.10;;;;;;;14.06;83.29;97539.64;110048;1247;71644;-71
2022/08/04 02:12:41;;;;;;;5.00;4.10;;;;;;;14.03;83.14;97538.81;110015;1247;68428;-70
2022/08/04 02:15:25;;;;;;;4.60;3.80;;;;;;;14.00;82.38;97536.08;110154;1247;69574;-71
2022/08/04 02:17:56;;;;;;;5.00;3.70;;;;;;;13.98;81.88;97537.48;110119;1247;59688;-71
2022/08/04 02:20:36;;;;;;;6.30;5.50;;;;;;;13.97;81.71;97534.62;110260;1247;59663;-71
2022/08/04 02:23:12;;;;;;;7.30;4.80;;;;;;;13.98;84.32;97531.87;110277;1247;71540;-71
2022/08/04 02:25:47;;;;;;;5.80;4.80;;;;;;;13.98;83.90;97532.92;110128;1247;69178;-73
2022/08/04 02:28:23;;;;;;;5.00;4.20;;;;;;;13.99;84.43;97531.29;110041;1248;69224;-69
2022/08/04 02:31:11;;;;;;;5.60;4.50;;;;;;;13.96;82.39;97529.43;110085;1245;59718;-70
2022/08/04 02:33:44;;;;;;;5.50;4.60;;;;;;;13.91;82.84;97527.55;110157;1246;59725;-69
2022/08/04 02:36:34;;;;;;;3.80;3.40;;;;;;;13.83;82.53;97527.71;110066;1247;71657;-70
2022/08/04 02:39:09;;;;;;;5.30;4.80;;;;;;;13.76;82.47;97526.56;110075;1247;68748;-70
2022/08/04 02:41:41;;;;;;;5.70;5.10;;;;;;;13.69;83.95;97529.92;110045;1247;69414;-71
2022/08/04 02:44:11;;;;;;;6.10;5.10;;;;;;;13.63;84.24;97528.00;110052;1247;60097;-70
2022/08/04 02:46:42;;;;;;;5.70;5.10;;;;;;;13.58;84.49;97529.79;110183;1247;59673;-71
2022/08/04 02:49:12;;;;;;;5.80;4.80;;;;;;;13.56;86.11;97529.51;110132;1247;71360;-71
2022/08/04 02:51:46;;;;;;;6.20;5.50;;;;;;;13.57;86.56;97529.59;110209;1247;68402;-70
2022/08/04 02:54:19;;;;;;;6.80;4.80;;;;;;;13.57;85.56;97526.73;110307;1247;69428;-73
2022/08/04 02:57:07;;;;;;;7.00;5.10;;;;;;;13.58;85.38;97530.33;110138;1247;59762;-71
2022/08/04 03:00:14;;;;;;;6.10;5.50;;;;;;;13.59;85.69;97536.59;110278;1247;59765;-71
2022/08/04 03:03:17;;;;;;;5.50;5.00;;;;;;;13.67;85.68;97535.72;110199;1247;71538;-71
2022/08/04 03:06:06;;;;;;;5.10;4.60;;;;;;;13.69;82.60;97534.52;110322;1247;68990;-72
2022/08/04 03:08:50;;;;;;;4.60;4.10;;;;;;;13.72;83.32;97538.77;110122;1247;69401;-71
2022/08/04 03:11:31;;;;;;;4.60;4.20;;;;;;;13.74;80.89;97539.34;110267;1247;59803;-71
2022/08/04 03:14:35;;;;;;;5.00;4.50;;;;;;;13.72;80.66;97537.23;110218;1247;59638;-72
2022/08/04 03:17:43;;;;;;;6.20;5.50;;;;;;;13.69;80.55;97538.05;110179;1247;70733;-71
2022/08/04 03:20:43;;;;;;;4.30;3.90;;;;;;;13.62;80.48;97531.95;109681;1247;69254;-71
2022/08/04 03:23:27;;;;;;;5.60;4.60;;;;;;;13.56;81.97;97536.45;110177;1247;68656;-72
2022/08/04 03:26:34;;;;;;;5.40;4.90;;;;;;;13.51;82.18;97539.88;110221;1247;59737;-71
2022/08/04 03:29:25;;;;;;;5.00;4.50;;;;;;;13.48;82.76;97542.56;110222;1247;59638;-69
2022/08/04 03:32:05;;;;;;;5.70;5.10;;;;;;;13.50;85.16;97545.71;110282;1247;70764;-71
2022/08/04 03:34:44;;;;;;;5.30;4.80;;;;;;;13.60;86.47;97546.63;110226;1247;69165;-71
2022/08/04 03:37:19;;;;;;;5.60;5.00;;;;;;;13.66;85.19;97547.48;110239;1247;69864;-70
2022/08/04 03:40:16;;;;;;;5.70;5.20;;;;;;;13.72;85.25;97546.36;110316;1247;60151;-70
2022/08/04 03:42:58;;;;;;;6.00;5.40;;;;;;;13.76;84.82;97547.20;110121;1247;59826;-71
2022/08/04 03:46:03;;;;;;;5.90;5.30;;;;;;;13.78;85.11;97550.19;110169;1247;71549;-70
2022/08/04 03:49:06;;;;;;;7.40;6.10;;;;;;;13.73;84.05;97550.77;110153;1246;69403;-71
2022/08/04 03:55:07;;;;;;;7.50;5.30;;;;;;;13.60;84.71;97557.70;110587;1247;59688;-72
2022/08/04 03:57:52;;;;;;;6.70;5.50;;;;;;;13.65;85.35;97560.75;110647;1246;59673;-71
2022/08/04 04:01:07;;;;;;;5.70;5.10;;;;;;;13.74;85.56;97566.67;110234;1247;70726;-71
2022/08/04 04:04:03;;;;;;;7.70;5.60;;;;;;;13.84;84.51;97565.30;110101;1245;69372;-72
2022/08/04 04:07:20;;;;;;;5.70;5.10;;;;;;;13.99;84.83;97564.41;110388;1245;69242;-71
2022/08/04 04:10:39;;;;;;;5.60;4.90;;;;;;;14.12;83.66;97570.36;110177;1246;59752;-72
2022/08/04 04:13:46;;;;;;;6.70;5.00;;;;;;;14.27;84.36;97570.10;110302;1245;59693;-71
2022/08/04 04:16:28;;;;;;;6.40;4.50;;;;;;;14.39;83.06;97574.34;110256;1247;70937;-72
2022/08/04 04:19:12;;;;;;;5.80;5.20;;;;;;;14.52;81.88;97578.16;110268;1245;68494;-72
2022/08/04 04:21:58;;;;;;;6.60;6.00;;;;;;;14.71;81.82;97575.61;110277;1245;69311;-71
2022/08/04 04:24:40;;;;;;;5.20;4.70;;;;;;;14.98;81.99;97578.20;110233;1244;59677;-72
2022/08/04 04:27:28;;;;;;;5.90;5.40;;;;;;;15.29;81.23;97577.49;110293;1244;59761;-71
2022/08/04 04:30:05;;;;;;;6.60;4.70;;;;;;;15.58;80.04;97574.92;110200;1245;71430;-69
2022/08/04 04:32:38;;;;;;;8.20;5.00;;;;;;;15.82;78.48;97580.70;110256;1247;69305;-68
2022/08/04 04:35:28;;;;;;;6.30;5.70;;;;;;;15.98;77.41;97580.78;110198;1246;69418;-70
2022/08/04 04:38:15;;;;;;;5.70;4.70;;;;;;;16.13;76.49;97579.44;110164;1246;59695;-69
2022/08/04 04:41:04;;;;;;;6.20;5.40;;;;;;;16.23;75.66;97581.05;110159;1247;59731;-68
2022/08/04 04:43:46;;;;;;;7.30;5.50;;;;;;;16.33;75.24;97580.91;109841;1247;71097;-71
2022/08/04 04:46:36;;;;;;;6.00;5.20;;;;;;;16.38;74.81;97575.52;110294;1244;68346;-71
2022/08/04 04:49:29;;;;;;;5.40;4.80;;;;;;;16.40;74.38;97579.19;110252;1244;69245;-72
2022/08/04 04:52:04;;;;;;;7.20;5.60;;;;;;;16.43;74.28;97579.20;110188;1247;59723;-71
2022/08/04 04:54:44;;;;;;;6.20;5.00;;;;;;;16.49;74.07;97577.98;110462;1244;59659;-72
2022/08/04 04:57:19;;;;;;;7.20;5.00;;;;;;;16.60;73.66;97576.05;110161;1247;71566;-70
2022/08/04 05:00:12;;;;;;;7.60;5.40;;;;;;;16.77;73.37;97577.07;110361;1244;68594;-70
2022/08/04 05:02:58;;;;;;;5.90;5.30;;;;;;;16.94;72.60;97575.46;110332;1245;69503;-74
2022/08/04 05:06:13;;;;;;;5.20;4.70;;;;;;;17.17;72.13;97574.08;110270;1244;59741;-73
2022/08/04 05:08:51;;;;;;;4.30;3.90;;;;;;;17.53;71.51;97573.42;110356;1247;59768;-75
2022/08/04 05:12:00;;;;;;;6.00;4.90;;;;;;;17.90;71.19;97572.79;110454;1245;71517;-74
2022/08/04 05:14:34;;;;;;;4.50;4.00;;;;;;;18.38;70.83;97575.47;110414;1245;68465;-73
2022/08/04 05:17:23;;;;;;;5.10;4.60;;;;;;;18.82;69.95;97578.20;109799;1247;68749;-75
2022/08/04 05:20:17;;;;;;;4.60;4.10;;;;;;;19.16;68.04;97580.11;110287;1246;59728;-76
2022/08/04 05:23:16;;;;;;;5.00;4.50;;;;;;;19.66;68.37;97576.06;110253;1247;59746;-76
2022/08/04 05:25:50;;;;;;;4.80;4.10;;;;;;;20.12;65.31;97573.77;110325;1246;70886;-76
2022/08/04 05:28:40;;;;;;;7.30;4.00;;;;;;;20.58;64.88;97577.35;110483;1247;69422;-75
2022/08/04 05:31:23;;;;;;;5.30;4.80;;;;;;;20.99;61.77;97580.60;110458;1245;68278;-76
2022/08/04 05:34:06;;;;;;;5.10;4.40;;;;;;;21.39;62.56;97581.20;110342;1247;60659;-77
2022/08/04 05:36:47;;;;;;;5.80;4.00;;;;;;;21.86;62.34;97581.95;110339;1247;59760;-75
2022/08/04 05:39:22;;;;;;;6.30;4.50;;;;;;;22.31;59.98;97581.02;110250;1247;71001;-77
2022/08/04 05:41:52;;;;;;;8.20;4.40;;;;;;;22.52;58.20;97584.09;110259;1247;68877;-77
2022/08/04 05:44:27;;;;;;;4.10;3.70;;;;;;;22.86;59.11;97590.89;110253;1245;69472;-75
2022/08/04 05:46:58;;;;;;;6.50;4.20;;;;;;;23.28;56.93;97588.67;110366;1245;59757;-75
2022/08/04 05:49:28;;;;;;;4.80;3.90;;;;;;;23.52;55.16;97589.07;110286;1247;59775;-75
2022/08/04 05:52:02;;;;;;;6.40;4.00;;;;;;;23.82;56.09;97586.31;110353;1246;70585;-75
2022/08/04 05:54:33;;;;;;;5.70;4.00;;;;;;;24.13;55.53;97588.67;110319;1247;68642;-74
2022/08/04 05:57:04;;;;;;;5.10;3.60;;;;;;;24.28;52.17;97585.95;110675;1245;68776;-77
2022/08/04 05:59:38;;;;;;;5.00;3.60;;;;;;;24.60;54.09;97589.84;110711;1244;59694;-76
2022/08/04 06:02:08;;;;;;;4.30;3.80;;;;;;;24.89;51.42;97589.45;111255;1245;59706;-76
2022/08/04 06:04:40;;;;;;;5.70;3.70;;;;;;;25.02;49.02;97584.84;110609;1244;72286;-74
2022/08/04 06:07:11;;;;;;;4.80;3.40;;;;;;;25.25;49.66;97591.60;110609;1245;69407;-75
2022/08/04 06:09:41;;;;;;;4.10;2.70;;;;;;;25.41;48.21;97591.16;110224;1247;68953;-75
2022/08/04 06:12:21;;;;;;;4.50;3.50;;;;;;;25.51;47.40;97589.09;110423;1245;59747;-75
2022/08/04 06:14:54;;;;;;;3.10;2.80;;;;;;;25.46;47.28;97590.67;110198;1247;59643;-75
2022/08/04 06:17:34;;;;;;;3.20;2.60;;;;;;;25.60;46.00;97591.05;110101;1247;71658;-75
2022/08/04 06:20:35;;;;;;;4.80;3.20;;;;;;;25.80;46.13;97591.48;110204;1246;69781;-76
2022/08/04 06:23:10;;;;;;;3.10;2.80;;;;;;;25.87;45.92;97590.55;110524;1245;68745;-75
2022/08/04 06:25:51;;;;;;;3.10;2.40;;;;;;;26.08;44.42;97588.24;110303;1247;59706;-77
2022/08/04 06:28:21;;;;;;;2.80;2.50;;;;;;;26.36;44.65;97591.27;110251;1247;59635;-76
2022/08/04 06:30:52;;;;;;;2.60;2.30;;;;;;;26.50;42.72;97584.84;110302;1247;71243;-77
2022/08/04 06:33:34;;;;;;;3.00;2.70;;;;;;;26.56;42.64;97584.34;110410;1246;70019;-77
2022/08/04 06:36:23;;;;;;;2.60;2.40;;;;;;;26.69;42.50;97583.27;110413;1244;68632;-73
2022/08/04 06:38:53;;;;;;;4.00;2.30;;;;;;;26.97;42.52;97587.86;110394;1246;59733;-79
2022/08/04 06:41:29;;;;;;;3.70;2.60;;;;;;;27.23;41.12;97586.89;110374;1245;59756;-77
2022/08/04 06:44:01;;;;;;;3.10;2.40;;;;;;;27.31;40.28;97583.59;110435;1247;70704;-77
2022/08/04 06:46:33;;;;;;;2.40;2.20;;;;;;;27.18;39.95;97585.95;110398;1244;69282;-77
2022/08/04 06:49:03;;;;;;;2.50;2.30;;;;;;;27.51;40.71;97584.23;110149;1246;69235;-77
2022/08/04 06:51:35;;;;;;;2.60;2.20;;;;;;;27.67;40.61;97588.32;110288;1246;59722;-77
2022/08/04 06:54:14;;;;;;;2.90;2.20;;;;;;;28.03;39.17;97585.25;110451;1244;59688;-77
2022/08/04 06:56:44;;;;;;;3.10;2.20;;;;;;;28.29;39.15;97584.29;110289;1246;70671;-77
2022/08/04 06:59:15;;;;;;;2.30;2.10;;;;;;;28.56;38.45;97583.82;110256;1244;69200;-78
2022/08/04 07:01:46;;;;;;;3.10;2.10;;;;;;;28.80;36.97;97584.36;110421;1244;70107;-78
2022/08/04 07:04:15;;;;;;;2.10;1.90;;;;;;;28.82;34.99;97585.74;110503;1247;59764;-77
2022/08/04 07:06:44;;;;;;;2.20;2.00;;;;;;;28.82;35.58;97584.38;110378;1244;59627;-78
2022/08/04 07:09:13;;;;;;;2.20;2.00;;;;;;;28.91;36.20;97580.34;110533;1244;71755;-76
2022/08/04 07:11:42;;;;;;;2.40;2.10;;;;;;;29.11;34.48;97581.64;110266;1244;67947;-76
2022/08/04 07:14:13;;;;;;;4.10;2.30;;;;;;;28.64;33.38;97578.73;110458;1244;69877;-76
2022/08/04 07:16:42;;;;;;;3.00;2.10;;;;;;;28.52;34.61;97572.98;110412;1243;59724;-76
2022/08/04 07:19:10;;;;;;;3.90;2.40;;;;;;;29.04;34.97;97574.45;110359;1244;59649;-76
2022/08/04 07:21:46;;;;;;;2.40;1.90;;;;;;;29.37;33.80;97573.77;110191;1244;71360;-76
2022/08/04 07:24:36;;;;;;;2.60;2.40;;;;;;;29.74;33.72;97569.13;110246;1246;69199;-77
2022/08/04 07:27:08;;;;;;;3.50;2.30;;;;;;;30.15;32.98;97569.79;110273;1246;69931;-77
2022/08/04 07:29:38;;;;;;;3.90;2.10;;;;;;;29.67;31.02;97568.82;110245;1247;59660;-77
2022/08/04 07:32:09;;;;;;;2.90;2.30;;;;;;;29.84;31.83;97566.09;110333;1246;59621;-76
2022/08/04 07:34:40;;;;;;;3.50;2.40;;;;;;;29.81;31.57;97562.90;110436;1244;71457;-77
2022/08/04 07:37:09;;;;;;;2.40;1.80;;;;;;;29.82;32.16;97564.80;110344;1244;69370;-77
2022/08/04 07:39:39;;;;;;;2.40;2.10;;;;;;;30.17;32.16;97562.67;110068;1247;68764;-77
2022/08/04 07:42:20;;;;;;;2.20;1.90;;;;;;;30.39;31.37;97561.95;110213;1246;59731;-77
2022/08/04 07:44:49;;;;;;;3.20;2.00;;;;;;;30.47;30.49;97559.16;110102;1246;60100;-76
2022/08/04 07:47:19;;;;;;;2.50;2.30;;;;;;;30.60;30.29;97553.75;109842;1247;72594;-77
2022/08/04 07:49:54;;;;;;;2.60;2.30;;;;;;;30.38;30.37;97557.59;110492;1244;68205;-77
2022/08/04 07:52:26;;;;;;;3.00;2.40;;;;;;;30.23;31.26;97559.25;110186;1244;69980;-77
2022/08/04 07:54:55;;;;;;;2.60;2.40;;;;;;;30.38;31.46;97559.86;110268;1244;59719;-76
2022/08/04 07:57:24;;;;;;;2.30;2.00;;;;;;;30.93;31.56;97563.98;110420;1244;59744;-79
2022/08/04 08:00:13;;;;;;;2.60;1.90;;;;;;;31.47;31.23;97568.41;110539;1244;71820;-76
2022/08/04 08:02:43;;;;;;;4.50;2.10;;;;;;;31.95;30.42;97566.21;110525;1244;68607;-77
2022/08/04 08:05:15;;;;;;;2.80;1.90;;;;;;;32.27;29.96;97558.38;110478;1244;69417;-76
2022/08/04 08:07:50;;;;;;;2.40;1.80;;;;;;;32.60;29.91;97557.91;110234;1244;59747;-77
2022/08/04 08:10:23;;;;;;;3.10;2.20;;;;;;;32.66;29.04;97558.38;110436;1244;59681;-76
2022/08/04 08:12:53;;;;;;;3.70;2.70;;;;;;;32.17;29.05;97559.45;110135;1247;70602;-76
2022/08/04 08:15:22;;;;;;;2.30;1.90;;;;;;;31.99;30.08;97559.33;110313;1245;68938;-76
2022/08/04 08:17:51;;;;;;;4.30;2.50;;;;;;;32.05;29.51;97560.83;110383;1244;69228;-76
2022/08/04 08:20:30;;;;;;;2.30;2.10;;;;;;;32.25;30.74;97561.91;110427;1244;59763;-76
2022/08/04 08:23:00;;;;;;;2.70;2.00;;;;;;;32.34;29.78;97555.69;110115;1247;59731;-77
2022/08/04 08:25:31;;;;;;;2.80;2.50;;;;;;;32.71;29.80;97554.86;110431;1244;70732;-77
2022/08/04 08:28:03;;;;;;;3.80;2.50;;;;;;;32.82;27.61;97548.84;110445;1244;69431;-79
2022/08/04 08:30:34;;;;;;;2.50;2.20;;;;;;;32.83;29.52;97548.96;110271;1247;69489;-78
2022/08/04 08:33:06;;;;;;;2.60;2.00;;;;;;;32.60;29.26;97550.16;110242;1247;59826;-78
2022/08/04 08:35:55;;;;;;;3.60;2.40;;;;;;;32.74;27.74;97547.17;110211;1247;59687;-79
2022/08/04 08:39:02;;;;;;;2.90;2.20;;;;;;;32.74;27.90;97542.73;110220;1247;71520;-78
2022/08/04 08:41:50;;;;;;;2.20;1.80;;;;;;;32.92;27.27;97549.10;110051;1247;68483;-78
2022/08/04 08:44:57;;;;;;;2.40;1.90;;;;;;;33.27;26.14;97546.88;110286;1244;69210;-76
2022/08/04 08:47:28;;;;;;;2.20;2.00;;;;;;;33.10;26.73;97546.90;110084;1245;59759;-76
2022/08/04 08:50:50;;;;;;;2.00;1.80;;;;;;;32.84;26.40;97549.81;110269;1247;59684;-76
2022/08/04 08:53:25;;;;;;;2.60;1.90;;;;;;;32.12;26.31;97555.25;110173;1244;71358;-77
2022/08/04 08:56:15;;;;;;;2.10;1.90;;;;;;;32.16;26.67;97545.11;110566;1244;69151;-79
2022/08/04 08:58:51;;;;;;;2.10;1.40;;;;;;;32.90;26.78;97545.43;110509;1242;69394;-77
2022/08/04 09:02:02;;;;;;;2.10;1.90;;;;;;;33.25;25.59;97545.48;110488;1244;59737;-77
2022/08/04 09:04:48;;;;;;;3.60;1.80;;;;;;;33.44;25.13;97543.34;109760;1244;59751;-77
2022/08/04 09:07:47;;;;;;;1.70;1.60;;;;;;;33.94;25.11;97539.27;110345;1245;71775;-77
2022/08/04 09:10:37;;;;;;;2.00;1.80;;;;;;;33.63;23.26;97535.14;110237;1247;69208;-78
2022/08/04 09:13:44;;;;;;;1.70;1.60;;;;;;;33.85;24.75;97529.33;110209;1247;68457;-77
2022/08/04 09:16:21;;;;;;;2.00;1.70;;;;;;;34.54;24.12;97530.46;110333;1244;59814;-78
2022/08/04 09:19:01;;;;;;;2.90;2.00;;;;;;;35.04;23.32;97529.27;110379;1244;59673;-77
2022/08/04 09:21:42;;;;;;;2.00;1.80;;;;;;;35.22;22.69;97532.48;110330;1244;71563;-78
2022/08/04 09:24:27;;;;;;;2.60;1.90;;;;;;;34.80;22.43;97530.10;110345;1245;69362;-78
2022/08/04 09:27:27;;;;;;;4.00;2.10;;;;;;;34.04;22.82;97526.07;110357;1244;69457;-77
2022/08/04 09:30:07;;;;;;;2.10;1.80;;;;;;;34.50;23.50;97527.55;110419;1244;59747;-78
2022/08/04 09:32:54;;;;;;;2.60;2.00;;;;;;;34.95;23.05;97526.51;110252;1245;59739;-75
2022/08/04 09:35:29;;;;;;;1.80;1.70;;;;;;;35.29;22.40;97529.79;110309;1245;71411;-76
2022/08/04 09:38:25;;;;;;;1.70;1.50;;;;;;;35.79;22.59;97528.92;110132;1247;69352;-77
2022/08/04 09:40:53;;;;;;;3.00;2.10;;;;;;;36.04;22.05;97529.38;110280;1246;69310;-78
2022/08/04 09:43:31;;;;;;;2.30;2.00;;;;;;;35.99;21.02;97527.30;110314;1244;60098;-78
2022/08/04 09:46:26;;;;;;;3.70;1.60;;;;;;;36.13;22.06;97526.71;110343;1245;59739;-77
2022/08/04 09:49:09;;;;;;;2.80;2.10;;;;;;;35.96;22.51;97531.88;110388;1245;72030;-77
2022/08/04 09:51:52;;;;;;;2.10;1.90;;;;;;;36.13;21.40;97527.80;110369;1244;68420;-78
2022/08/04 09:54:45;;;;;;;2.30;2.00;;;;;;;35.20;20.91;97525.25;110342;1245;68517;-77
2022/08/04 09:57:33;;;;;;;1.90;1.70;;;;;;;35.35;21.67;97524.76;110506;1244;59737;-75
2022/08/04 10:00:05;;;;;;;2.20;2.00;;;;;;;35.72;22.36;97523.04;110443;1246;59615;-76
2022/08/04 10:02:46;;;;;;;3.30;2.30;;;;;;;36.32;21.71;97517.84;110359;1244;71611;-77
2022/08/04 10:05:24;;;;;;;2.10;1.90;;;;;;;36.33;21.43;97519.24;110172;1247;69189;-77
2022/08/04 10:08:10;;;;;;;2.00;1.60;;;;;;;36.24;21.21;97517.30;110188;1247;69418;-76
2022/08/04 10:11:06;;;;;;;2.10;1.90;;;;;;;36.48;20.49;97510.45;110192;1246;59754;-77
2022/08/04 10:13:53;;;;;;;2.00;1.80;;;;;;;36.11;21.68;97512.73;110107;1246;59680;-77
2022/08/04 10:16:47;;;;;;;2.20;1.60;;;;;;;36.40;22.36;97507.14;110207;1247;71657;-77
2022/08/04 10:19:30;;;;;;;2.90;2.00;;;;;;;36.88;20.12;97509.70;110227;1247;70172;-76
2022/08/04 10:22:10;;;;;;;1.70;1.60;;;;;;;36.90;21.06;97507.94;110230;1247;69434;-77
2022/08/04 10:25:25;;;;;;;1.90;1.70;;;;;;;37.09;20.50;97509.48;110257;1247;60163;-77
2022/08/04 10:28:18;;;;;;;3.00;1.90;;;;;;;36.93;20.65;97509.18;110177;1247;59668;-76
2022/08/04 10:31:08;;;;;;;1.90;1.80;;;;;;;37.44;20.12;97513.16;110183;1247;71430;-76
2022/08/04 10:34:05;;;;;;;1.80;1.70;;;;;;;37.61;19.94;97511.30;110296;1245;69518;-76
2022/08/04 10:36:48;;;;;;;2.40;1.90;;;;;;;37.29;19.69;97513.92;109777;1246;69491;-77
2022/08/04 10:39:23;;;;;;;2.50;1.90;;;;;;;37.21;19.03;97509.73;110297;1247;59680;-76
2022/08/04 10:42:24;;;;;;;1.70;1.60;;;;;;;36.90;20.27;97507.13;110141;1247;59651;-77
2022/08/04 10:45:18;;;;;;;2.70;2.00;;;;;;;36.63;19.94;97507.14;110147;1247;71541;-75
2022/08/04 10:48:23;;;;;;;2.30;2.10;;;;;;;36.41;21.45;97505.84;110103;1247;68446;-76
2022/08/04 10:51:19;;;;;;;2.60;1.90;;;;;;;36.67;19.99;97497.61;110229;1247;68473;-76
2022/08/04 10:53:56;;;;;;;2.20;1.80;;;;;;;36.96;20.25;97499.44;110464;1247;59706;-77
2022/08/04 10:56:49;;;;;;;1.80;1.70;;;;;;;37.16;20.60;97500.20;110302;1245;59783;-77
2022/08/04 10:59:32;;;;;;;1.90;1.70;;;;;;;37.06;19.85;97501.71;110289;1246;70770;-76
2022/08/04 11:02:22;;;;;;;2.50;1.90;;;;;;;37.05;20.30;97498.74;110332;1247;69820;-76
2022/08/04 11:05:09;;;;;;;4.70;2.20;;;;;;;37.05;20.28;97499.80;110358;1244;69219;-77
2022/08/04 11:07:42;;;;;;;2.10;1.80;;;;;;;37.17;19.45;97495.52;110313;1244;59704;-77
2022/08/04 11:10:12;;;;;;;2.80;2.00;;;;;;;37.20;20.18;97493.88;110417;1244;59609;-78
2022/08/04 11:12:44;;;;;;;2.40;2.00;;;;;;;37.11;20.03;97493.73;110452;1244;71511;-77
2022/08/04 11:15:26;;;;;;;2.20;1.90;;;;;;;36.92;20.01;97488.00;110459;1244;69806;-76
2022/08/04 11:18:04;;;;;;;1.70;1.60;;;;;;;36.83;19.68;97486.35;110164;1247;68710;-77
2022/08/04 11:20:52;;;;;;;1.90;1.80;;;;;;;37.02;20.26;97488.38;110305;1244;59705;-76
2022/08/04 11:23:28;;;;;;;2.10;1.90;;;;;;;36.88;18.99;97482.84;110293;1247;59691;-77
2022/08/04 11:26:05;;;;;;;2.50;1.80;;;;;;;37.06;18.89;97483.90;110401;1245;70620;-76
2022/08/04 11:28:52;;;;;;;2.30;2.10;;;;;;;37.13;19.07;97482.50;110383;1244;68213;-75
2022/08/04 11:31:35;;;;;;;2.30;1.80;;;;;;;37.27;19.31;97479.23;110178;1245;70060;-76
2022/08/04 11:34:04;;;;;;;1.80;1.70;;;;;;;37.11;19.31;97478.82;110308;1244;59810;-76
2022/08/04 11:36:40;;;;;;;1.80;1.70;;;;;;;37.40;19.25;97475.98;110427;1244;59700;-78
2022/08/04 11:39:21;;;;;;;1.70;1.60;;;;;;;37.44;19.27;97476.99;110512;1244;71351;-77
2022/08/04 11:42:09;;;;;;;1.90;1.70;;;;;;;36.41;18.98;97471.76;110418;1247;69339;-77
2022/08/04 11:44:47;;;;;;;2.50;2.10;;;;;;;36.64;20.89;97471.66;110501;1244;69218;-77
2022/08/04 11:47:32;;;;;;;2.00;1.80;;;;;;;36.73;20.29;97471.02;110407;1245;59741;-77
2022/08/04 11:50:19;;;;;;;2.30;2.10;;;;;;;36.40;20.85;97468.30;110384;1244;59763;-77
2022/08/04 11:52:52;;;;;;;2.90;1.90;;;;;;;36.46;21.42;97467.60;110398;1245;71343;-77
2022/08/04 11:55:24;;;;;;;1.80;1.60;;;;;;;36.52;21.17;97465.88;110387;1244;69985;-76
2022/08/04 11:57:54;;;;;;;3.60;2.00;;;;;;;36.64;21.12;97463.91;110415;1245;68453;-76
2022/08/04 12:00:27;;;;;;;2.10;1.90;;;;;;;36.76;21.12;97464.36;110300;1247;60018;-77
2022/08/04 12:03:31;;;;;;;2.00;1.80;;;;;;;36.79;20.57;97465.94;110412;1244;59750;-76
2022/08/04 12:06:28;;;;;;;2.50;2.10;;;;;;;36.46;21.26;97459.67;110372;1245;72070;-75
2022/08/04 12:09:00;;;;;;;1.90;1.70;;;;;;;36.31;21.04;97458.67;110174;1244;69223;-75
2022/08/04 12:12:06;;;;;;;2.40;2.00;;;;;;;36.11;21.70;97461.31;110371;1244;68460;-79
2022/08/04 12:14:55;;;;;;;2.20;1.90;;;;;;;36.01;20.75;97453.60;110337;1244;60078;-76
2022/08/04 12:17:53;;;;;;;2.50;1.80;;;;;;;35.66;21.39;97459.92;110378;1244;59677;-78
2022/08/04 12:20:26;;;;;;;2.70;1.70;;;;;;;35.25;21.02;97456.42;110396;1243;71352;-78
2022/08/04 12:23:19;;;;;;;2.00;1.70;;;;;;;35.20;20.11;97452.61;110345;1244;69179;-78
2022/08/04 12:25:54;;;;;;;1.80;1.50;;;;;;;35.10;21.67;97451.17;110409;1245;69242;-77
2022/08/04 12:28:23;;;;;;;1.90;1.80;;;;;;;35.10;21.42;97450.26;110433;1244;59740;-77
2022/08/04 12:31:01;;;;;;;2.20;2.00;;;;;;;34.84;21.73;97447.11;110387;1244;59623;-76
2022/08/04 12:33:58;;;;;;;3.30;2.10;;;;;;;34.31;21.34;97440.17;110406;1244;71387;-77
2022/08/04 12:36:36;;;;;;;2.50;1.90;;;;;;;33.92;22.90;97439.50;110333;1245;69617;-77
2022/08/04 12:39:16;;;;;;;2.50;2.00;;;;;;;33.50;22.76;97437.89;110353;1247;69519;-77